createdAt,value
2023-02-23T00:00:47.343Z,11.33
2023-02-23T00:03:34.050Z,12.36
2023-02-23T00:06:20.477Z,11.68
2023-02-23T00:09:14.012Z,11.79
2023-02-23T00:12:00.782Z,12.31
2023-02-23T00:14:48.992Z,13.39
2023-02-23T00:17:36.691Z,12.13
2023-02-23T00:20:27.471Z,12.28
2023-02-23T00:23:15.002Z,12.55
2023-02-23T00:26:05.046Z,13.68
2023-02-23T00:28:55.041Z,13.04
2023-02-23T00:31:44.329Z,13.10
2023-02-23T00:34:30.855Z,13.01
2023-02-23T00:37:18.659Z,12.42
2023-02-23T00:40:13.006Z,10.48
2023-02-23T00:42:59.281Z,10.11
2023-02-23T00:45:46.690Z,10.36
2023-02-23T00:48:36.507Z,10.27
2023-02-23T00:51:24.071Z,11.47
2023-02-23T00:54:13.801Z,12.72
2023-02-23T00:57:00.519Z,13.98
2023-02-23T00:59:46.945Z,14.16
2023-02-23T01:02:35.311Z,14.32
2023-02-23T01:05:23.124Z,14.33
2023-02-23T01:08:10.731Z,14.13
2023-02-23T01:10:57.410Z,14.42
2023-02-23T01:13:46.960Z,14.35
2023-02-23T01:16:35.837Z,14.88
2023-02-23T01:19:22.677Z,14.91
2023-02-23T01:22:10.857Z,14.99
2023-02-23T01:24:59.599Z,14.83
2023-02-23T01:27:46.550Z,15.02
2023-02-23T01:30:33.607Z,15.47
2023-02-23T01:33:20.049Z,15.36
2023-02-23T01:36:07.213Z,14.26
2023-02-23T01:38:56.980Z,13.26
2023-02-23T01:41:44.382Z,13.71
2023-02-23T01:45:23.167Z,13.60
2023-02-23T01:48:13.579Z,13.60
2023-02-23T01:51:01.877Z,13.48
2023-02-23T01:53:55.861Z,13.30
2023-02-23T01:56:47.390Z,13.30
2023-02-23T01:59:40.786Z,13.63
2023-02-23T02:02:33.772Z,12.72
2023-02-23T02:05:21.327Z,12.74
2023-02-23T02:08:11.504Z,12.64
2023-02-23T02:10:58.393Z,13.06
2023-02-23T02:13:46.640Z,13.46
2023-02-23T02:17:09.632Z,12.52
2023-02-23T02:20:26.510Z,12.77
2023-02-23T02:23:54.340Z,12.30
2023-02-23T02:26:52.403Z,13.33
2023-02-23T02:30:05.481Z,13.34
2023-02-23T02:33:27.305Z,13.40
2023-02-23T02:36:49.872Z,13.43
2023-02-23T02:39:47.085Z,13.02
2023-02-23T02:42:43.632Z,13.18
2023-02-23T02:45:40.687Z,13.85
2023-02-23T02:48:38.605Z,13.83
2023-02-23T02:51:28.543Z,15.93
2023-02-23T02:54:24.299Z,17.39
2023-02-23T02:57:13.401Z,13.74
2023-02-23T03:00:17.945Z,14.22
2023-02-23T03:03:23.895Z,14.10
2023-02-23T03:06:28.426Z,13.65
2023-02-23T03:09:45.259Z,13.54
2023-02-23T03:12:58.573Z,14.33
2023-02-23T03:16:16.107Z,14.99
2023-02-23T03:19:33.246Z,12.94
2023-02-23T03:22:42.387Z,12.85
2023-02-23T03:25:53.528Z,13.39
2023-02-23T03:29:08.126Z,14.09
2023-02-23T03:32:21.015Z,13.72
2023-02-23T03:35:31.511Z,13.31
2023-02-23T03:38:47.771Z,13.74
2023-02-23T03:41:56.527Z,12.90
2023-02-23T03:45:06.097Z,13.38
2023-02-23T03:48:12.560Z,13.48
2023-02-23T03:51:22.218Z,14.11
2023-02-23T03:54:32.069Z,14.10
2023-02-23T03:57:41.225Z,13.33
2023-02-23T04:00:50.936Z,13.69
2023-02-23T04:03:59.540Z,13.51
2023-02-23T04:07:06.333Z,14.03
2023-02-23T04:10:10.560Z,9.61
2023-02-23T04:13:14.866Z,12.12
2023-02-23T04:16:03.630Z,12.53
2023-02-23T04:18:50.565Z,9.76
2023-02-23T04:21:37.023Z,9.65
2023-02-23T04:24:23.656Z,11.80
2023-02-23T04:27:10.093Z,12.60
2023-02-23T04:29:58.190Z,12.56
2023-02-23T04:32:46.021Z,12.13
2023-02-23T04:35:32.847Z,11.93
2023-02-23T04:38:19.490Z,12.68
2023-02-23T04:41:06.748Z,13.00
2023-02-23T04:43:52.832Z,13.17
2023-02-23T04:46:40.503Z,13.38
2023-02-23T04:49:27.447Z,13.39
2023-02-23T04:52:13.809Z,13.71
2023-02-23T04:55:00.374Z,13.55
2023-02-23T04:57:47.292Z,13.53
2023-02-23T05:00:34.000Z,13.02
2023-02-23T05:03:21.760Z,10.31
2023-02-23T05:06:08.547Z,9.47
2023-02-23T05:08:55.445Z,9.65
2023-02-23T05:11:42.254Z,9.73
2023-02-23T05:14:28.956Z,9.55
2023-02-23T05:17:15.485Z,9.49
2023-02-23T05:20:03.283Z,9.82
2023-02-23T05:22:49.985Z,9.83
2023-02-23T05:25:38.903Z,9.79
2023-02-23T05:28:25.174Z,9.79
2023-02-23T05:31:12.579Z,9.76
2023-02-23T05:33:59.471Z,9.69
2023-02-23T05:36:47.300Z,9.53
2023-02-23T05:39:33.765Z,9.50
2023-02-23T05:42:20.751Z,9.54
2023-02-23T05:45:09.040Z,9.47
2023-02-23T05:47:55.143Z,9.59
2023-02-23T05:50:41.477Z,9.77
2023-02-23T05:53:29.512Z,9.85
2023-02-23T05:56:20.690Z,9.81
2023-02-23T05:59:07.396Z,9.87
2023-02-23T06:01:54.229Z,9.70
2023-02-23T06:04:41.956Z,9.73
2023-02-23T06:07:28.344Z,10.08
2023-02-23T06:10:16.468Z,10.20
2023-02-23T06:13:03.885Z,10.03
2023-02-23T06:15:50.583Z,10.19
2023-02-23T06:18:37.269Z,10.07
2023-02-23T06:21:25.073Z,10.12
2023-02-23T06:24:12.222Z,10.21
2023-02-23T06:26:59.746Z,10.20
2023-02-23T06:29:46.567Z,10.15
2023-02-23T06:32:33.279Z,10.13
2023-02-23T06:35:22.328Z,10.11
2023-02-23T06:38:09.049Z,9.57
2023-02-23T06:40:55.439Z,10.14
2023-02-23T06:43:43.326Z,9.67
2023-02-23T06:46:30.229Z,10.24
2023-02-23T06:49:17.032Z,10.46
2023-02-23T06:52:03.406Z,10.06
2023-02-23T06:54:50.154Z,10.09
2023-02-23T06:57:37.314Z,10.48
2023-02-23T07:00:25.664Z,9.92
2023-02-23T07:03:12.445Z,9.57
2023-02-23T07:05:59.205Z,9.38
2023-02-23T07:08:46.077Z,9.33
2023-02-23T07:11:32.774Z,9.47
2023-02-23T07:14:26.502Z,10.24
2023-02-23T07:17:15.100Z,10.33
2023-02-23T07:20:01.854Z,10.40
2023-02-23T07:22:48.567Z,10.29
2023-02-23T07:25:35.325Z,10.23
2023-02-23T07:28:22.199Z,10.75
2023-02-23T07:31:09.188Z,10.79
2023-02-23T07:33:57.214Z,10.68
2023-02-23T07:36:44.044Z,10.68
2023-02-23T07:39:31.151Z,10.31
2023-02-23T07:42:17.840Z,10.38
2023-02-23T07:45:05.291Z,10.75
2023-02-23T07:47:51.720Z,11.07
2023-02-23T07:50:40.796Z,10.48
2023-02-23T07:53:28.216Z,10.83
2023-02-23T07:56:14.963Z,10.61
2023-02-23T07:59:02.252Z,10.28
2023-02-23T08:01:48.779Z,10.14
2023-02-23T08:04:35.614Z,10.24
2023-02-23T08:07:24.474Z,10.51
2023-02-23T08:10:12.395Z,10.76
2023-02-23T08:12:58.848Z,10.82
2023-02-23T08:15:45.445Z,10.52
2023-02-23T08:18:32.064Z,11.09
2023-02-23T08:21:18.728Z,11.28
2023-02-23T08:24:07.434Z,11.32
2023-02-23T08:26:54.074Z,11.07
2023-02-23T08:29:40.997Z,10.28
2023-02-23T08:32:29.802Z,10.47
2023-02-23T08:35:16.872Z,10.23
2023-02-23T08:38:03.273Z,10.32
2023-02-23T08:40:51.571Z,10.12
2023-02-23T08:43:39.276Z,10.36
2023-02-23T08:46:25.957Z,10.50
2023-02-23T08:49:12.681Z,10.89
2023-02-23T08:51:59.189Z,10.65
2023-02-23T08:54:45.899Z,10.67
2023-02-23T08:57:34.891Z,10.67
2023-02-23T09:00:22.158Z,10.77
2023-02-23T09:03:08.856Z,10.95
2023-02-23T09:05:55.800Z,10.47
2023-02-23T09:08:42.586Z,10.24
2023-02-23T09:11:29.212Z,10.63
2023-02-23T09:14:17.042Z,10.60
2023-02-23T09:17:03.970Z,10.41
2023-02-23T09:19:50.765Z,10.76
2023-02-23T09:22:37.110Z,10.78
2023-02-23T09:25:24.352Z,10.59
2023-02-23T09:28:13.048Z,11.04
2023-02-23T09:31:06.669Z,11.67
2023-02-23T09:33:54.489Z,11.51
2023-02-23T09:36:41.188Z,11.77
2023-02-23T09:39:37.694Z,12.06
2023-02-23T09:42:37.419Z,11.96
2023-02-23T09:45:30.962Z,11.80
2023-02-23T09:48:21.265Z,13.09
2023-02-23T09:51:16.273Z,12.98
2023-02-23T09:54:04.458Z,13.09
2023-02-23T09:56:51.263Z,13.83
2023-02-23T09:59:37.874Z,14.04
2023-02-23T10:02:31.131Z,13.96
2023-02-23T10:05:19.019Z,14.00
2023-02-23T10:08:12.983Z,13.56
2023-02-23T10:11:12.187Z,14.01
2023-02-23T10:14:14.303Z,14.41
2023-02-23T10:17:14.464Z,14.73
2023-02-23T10:20:12.981Z,15.49
2023-02-23T10:23:06.842Z,15.77
2023-02-23T10:25:59.384Z,15.23
2023-02-23T10:28:46.929Z,15.02
2023-02-23T10:31:41.221Z,16.20
2023-02-23T10:34:29.974Z,14.95
2023-02-23T10:37:19.065Z,15.83
2023-02-23T10:40:08.794Z,16.08
2023-02-23T10:42:57.954Z,15.84
2023-02-23T10:45:47.314Z,16.30
2023-02-23T10:48:39.941Z,15.85
2023-02-23T10:51:31.096Z,16.47
2023-02-23T10:54:44.172Z,17.18
2023-02-23T10:57:39.811Z,16.48
2023-02-23T11:00:30.838Z,16.43
2023-02-23T11:03:20.212Z,17.18
2023-02-23T11:06:07.604Z,16.48
2023-02-23T11:08:55.451Z,16.05
2023-02-23T11:11:42.222Z,17.43
2023-02-23T11:14:32.470Z,15.10
2023-02-23T11:17:29.190Z,17.77
2023-02-23T11:20:31.278Z,15.90
2023-02-23T11:23:23.050Z,17.26
2023-02-23T11:26:23.923Z,15.13
2023-02-23T11:29:18.568Z,15.08
2023-02-23T11:32:14.392Z,14.35
2023-02-23T11:35:32.014Z,14.33
2023-02-23T11:38:24.981Z,14.43
2023-02-23T11:41:21.286Z,14.59
2023-02-23T11:44:08.349Z,13.87
2023-02-23T11:46:55.611Z,13.90
2023-02-23T11:49:47.067Z,13.34
2023-02-23T11:52:33.827Z,14.16
2023-02-23T11:55:20.666Z,14.41
2023-02-23T11:58:19.194Z,13.83
2023-02-23T12:01:12.348Z,13.25
2023-02-23T12:03:59.482Z,13.11
2023-02-23T12:06:47.350Z,13.30
2023-02-23T12:09:36.816Z,13.50
2023-02-23T12:12:25.930Z,12.94
2023-02-23T12:15:22.727Z,12.82
2023-02-23T12:18:18.034Z,12.95
2023-02-23T12:21:16.574Z,15.07
2023-02-23T12:24:20.390Z,13.60
2023-02-23T12:27:13.626Z,11.78
2023-02-23T12:30:09.161Z,14.24
2023-02-23T12:33:01.328Z,15.99
2023-02-23T12:35:55.282Z,16.20
2023-02-23T12:38:50.910Z,16.69
2023-02-23T12:41:45.018Z,17.53
2023-02-23T12:44:40.158Z,18.77
2023-02-23T12:47:34.952Z,14.71
2023-02-23T12:50:28.345Z,14.98
2023-02-23T12:53:22.161Z,14.29
2023-02-23T12:56:26.050Z,13.82
2023-02-23T12:59:27.121Z,12.78
2023-02-23T13:02:20.020Z,13.55
2023-02-23T13:05:17.316Z,13.01
2023-02-23T13:08:14.854Z,13.44
2023-02-23T13:11:12.682Z,13.64
2023-02-23T13:14:04.488Z,13.20
2023-02-23T13:16:58.394Z,12.90
2023-02-23T13:19:51.191Z,13.78
2023-02-23T13:22:47.293Z,13.54
2023-02-23T13:25:43.456Z,14.14
2023-02-23T13:28:39.537Z,14.41
2023-02-23T13:31:28.822Z,14.47
2023-02-23T13:34:26.213Z,14.93
2023-02-23T13:37:17.189Z,14.63
2023-02-23T13:40:20.596Z,13.93
2023-02-23T13:43:17.631Z,13.97
2023-02-23T13:46:27.480Z,13.96
2023-02-23T13:49:28.515Z,13.58
2023-02-23T13:52:32.105Z,13.44
2023-02-23T13:55:48.667Z,13.64
2023-02-23T13:58:37.237Z,13.44
2023-02-23T14:01:28.157Z,13.01
2023-02-23T14:04:16.816Z,13.63
2023-02-23T14:07:15.155Z,13.51
2023-02-23T14:10:07.492Z,13.39
2023-02-23T14:13:09.457Z,13.66
2023-02-23T14:16:15.343Z,13.55
2023-02-23T14:19:12.143Z,12.88
2023-02-23T14:22:02.249Z,12.93
2023-02-23T14:25:24.782Z,13.33
2023-02-23T14:28:27.579Z,13.29
2023-02-23T14:31:25.833Z,12.99
2023-02-23T14:34:14.835Z,13.04
2023-02-23T14:37:14.989Z,12.62
2023-02-23T14:40:12.215Z,11.92
2023-02-23T14:43:02.082Z,11.53
2023-02-23T14:45:48.868Z,11.59
2023-02-23T14:48:36.793Z,12.13
2023-02-23T14:51:29.947Z,12.14
2023-02-23T14:54:26.395Z,12.39
2023-02-23T14:57:21.619Z,12.79
2023-02-23T15:00:16.890Z,12.36
2023-02-23T15:03:05.671Z,12.41
2023-02-23T15:05:56.296Z,12.69
2023-02-23T15:08:46.215Z,13.47
2023-02-23T15:11:33.214Z,13.32
2023-02-23T15:14:27.963Z,12.12
2023-02-23T15:17:20.629Z,12.66
2023-02-23T15:20:16.837Z,12.73
2023-02-23T15:23:05.816Z,12.13
2023-02-23T15:25:52.918Z,11.23
2023-02-23T15:28:41.625Z,11.07
2023-02-23T15:31:32.705Z,11.11
2023-02-23T15:34:21.357Z,11.03
2023-02-23T15:37:15.756Z,10.94
2023-02-23T15:40:06.135Z,11.57
2023-02-23T15:42:55.356Z,11.15
2023-02-23T15:45:49.444Z,10.53
2023-02-23T15:48:45.662Z,9.96
2023-02-23T15:51:38.340Z,9.68
2023-02-23T15:54:29.732Z,9.27
2023-02-23T15:57:22.641Z,9.16
2023-02-23T16:00:19.781Z,8.77
2023-02-23T16:03:08.177Z,8.74
2023-02-23T16:06:04.541Z,8.68
2023-02-23T16:08:58.712Z,8.58
2023-02-23T16:11:45.343Z,8.44
2023-02-23T16:14:36.681Z,8.51
2023-02-23T16:17:29.031Z,8.52
2023-02-23T16:20:19.420Z,8.65
2023-02-23T16:23:17.750Z,8.53
2023-02-23T16:26:12.844Z,8.67
2023-02-23T16:29:03.109Z,8.59
2023-02-23T16:31:56.201Z,8.49
2023-02-23T16:34:50.778Z,8.16
2023-02-23T16:37:51.386Z,8.33
2023-02-23T16:40:39.684Z,8.35
2023-02-23T16:43:26.508Z,8.16
2023-02-23T16:46:13.810Z,8.21
2023-02-23T16:49:10.067Z,8.36
2023-02-23T16:51:57.962Z,8.44
2023-02-23T16:54:47.387Z,8.37
2023-02-23T16:57:40.804Z,8.38
2023-02-23T17:00:30.432Z,8.20
2023-02-23T17:03:21.341Z,8.20
2023-02-23T17:06:08.441Z,8.06
2023-02-23T17:08:58.268Z,7.93
2023-02-23T17:11:47.294Z,7.72
2023-02-23T17:14:35.168Z,8.08
2023-02-23T17:17:22.756Z,7.88
2023-02-23T17:20:16.449Z,7.84
2023-02-23T17:23:04.031Z,7.88
2023-02-23T17:25:50.619Z,7.72
2023-02-23T17:28:37.532Z,7.77
2023-02-23T17:31:27.377Z,7.80
2023-02-23T17:34:14.425Z,7.91
2023-02-23T17:37:01.367Z,7.72
2023-02-23T17:39:49.637Z,7.40
2023-02-23T17:42:36.912Z,7.73
2023-02-23T17:45:23.719Z,7.73
2023-02-23T17:48:11.662Z,7.51
2023-02-23T17:51:01.061Z,7.89
2023-02-23T17:53:48.512Z,7.34
2023-02-23T17:56:34.982Z,7.39
2023-02-23T17:59:21.613Z,7.54
2023-02-23T18:02:10.740Z,7.53
2023-02-23T18:04:58.986Z,7.90
2023-02-23T18:07:48.349Z,8.00
2023-02-23T18:10:36.826Z,7.94
2023-02-23T18:13:24.337Z,7.70
2023-02-23T18:16:11.837Z,7.93
2023-02-23T18:18:58.689Z,8.11
2023-02-23T18:21:46.748Z,7.45
2023-02-23T18:24:33.620Z,7.80
2023-02-23T18:27:20.202Z,6.58
2023-02-23T18:30:08.230Z,6.55
2023-02-23T18:32:57.163Z,6.17
2023-02-23T18:35:46.080Z,6.00
2023-02-23T18:38:34.174Z,6.08
2023-02-23T18:41:21.048Z,5.88
2023-02-23T18:44:09.279Z,6.04
2023-02-23T18:46:55.974Z,5.92
2023-02-23T18:49:42.770Z,5.78
2023-02-23T18:52:29.318Z,5.84
2023-02-23T18:55:17.660Z,5.73
2023-02-23T18:58:05.826Z,5.74
2023-02-23T19:00:55.098Z,5.65
2023-02-23T19:03:43.437Z,5.76
2023-02-23T19:06:31.036Z,5.47
2023-02-23T19:09:21.474Z,5.37
2023-02-23T19:12:11.412Z,5.40
2023-02-23T19:14:58.549Z,5.25
2023-02-23T19:17:46.444Z,5.41
2023-02-23T19:20:35.739Z,5.29
2023-02-23T19:23:23.017Z,5.39
2023-02-23T19:26:09.322Z,5.39
2023-02-23T19:28:58.016Z,5.39
2023-02-23T19:31:45.048Z,5.35
2023-02-23T19:34:32.258Z,5.30
2023-02-23T19:37:18.749Z,5.33
2023-02-23T19:40:06.573Z,5.24
2023-02-23T19:42:53.638Z,5.04
2023-02-23T19:45:46.009Z,5.02
2023-02-23T19:48:32.858Z,5.08
2023-02-23T19:51:19.794Z,5.10
2023-02-23T19:54:07.488Z,5.01
2023-02-23T19:56:54.823Z,5.11
2023-02-23T19:59:42.654Z,5.00
2023-02-23T20:02:30.748Z,4.97
2023-02-23T20:05:17.929Z,4.88
2023-02-23T20:08:04.533Z,4.86
2023-02-23T20:10:51.781Z,4.87
2023-02-23T20:13:39.337Z,4.79
2023-02-23T20:16:29.293Z,4.79
2023-02-23T20:19:17.805Z,4.73
2023-02-23T20:22:04.407Z,4.49
2023-02-23T20:24:50.978Z,4.47
2023-02-23T20:27:37.741Z,4.33
2023-02-23T20:30:25.620Z,4.14
2023-02-23T20:33:15.078Z,4.05
2023-02-23T20:36:03.188Z,3.95
2023-02-23T20:38:50.080Z,3.91
2023-02-23T20:41:36.592Z,3.89
2023-02-23T20:44:25.269Z,3.76
2023-02-23T20:47:12.460Z,3.69
2023-02-23T20:49:58.771Z,3.53
2023-02-23T20:52:46.699Z,3.43
2023-02-23T20:55:34.239Z,3.42
2023-02-23T20:58:25.707Z,3.31
2023-02-23T21:01:16.451Z,3.31
2023-02-23T21:04:02.984Z,3.22
2023-02-23T21:06:49.643Z,3.18
2023-02-23T21:09:41.928Z,3.57
2023-02-23T21:12:28.733Z,3.27
2023-02-23T21:15:17.132Z,3.39
2023-02-23T21:18:04.376Z,3.98
2023-02-23T21:20:50.948Z,4.30
2023-02-23T21:23:38.117Z,4.80
2023-02-23T21:26:26.033Z,4.94
2023-02-23T21:29:14.837Z,5.14
2023-02-23T21:32:01.714Z,4.53
2023-02-23T21:34:48.723Z,3.87
2023-02-23T21:37:35.319Z,4.38
2023-02-23T21:40:23.229Z,3.78
2023-02-23T21:43:12.909Z,3.93
2023-02-23T21:45:59.321Z,4.12
2023-02-23T21:48:45.807Z,4.06
2023-02-23T21:51:36.393Z,3.68
2023-02-23T21:54:23.692Z,3.47
2023-02-23T21:57:11.000Z,3.90
2023-02-23T21:59:58.691Z,4.08
2023-02-23T22:02:47.054Z,3.47
2023-02-23T22:05:35.460Z,3.31
2023-02-23T22:08:21.945Z,3.38
2023-02-23T22:11:10.334Z,3.29
2023-02-23T22:13:59.281Z,3.32
2023-02-23T22:16:47.757Z,3.42
2023-02-23T22:19:34.780Z,3.40
2023-02-23T22:22:21.748Z,3.16
2023-02-23T22:25:09.570Z,3.21
2023-02-23T22:27:56.419Z,3.10
2023-02-23T22:30:44.522Z,3.28
2023-02-23T22:33:32.859Z,2.93
2023-02-23T22:36:19.693Z,2.69
2023-02-23T22:39:09.644Z,2.65
2023-02-23T22:41:56.275Z,2.62
2023-02-23T22:44:43.595Z,2.50
2023-02-23T22:47:30.819Z,3.34
2023-02-23T22:50:19.452Z,3.89
2023-02-23T22:53:07.085Z,2.97
2023-02-23T22:55:55.173Z,2.83
2023-02-23T22:58:43.143Z,2.75
2023-02-23T23:01:56.521Z,2.89
2023-02-23T23:04:43.544Z,4.58
2023-02-23T23:07:32.378Z,4.69
2023-02-23T23:10:19.889Z,4.72
2023-02-23T23:13:07.190Z,4.60
2023-02-23T23:15:57.721Z,4.84
2023-02-23T23:18:54.499Z,5.06
2023-02-23T23:21:43.654Z,4.77
2023-02-23T23:24:32.649Z,4.97
2023-02-23T23:27:21.171Z,4.84
2023-02-23T23:30:11.264Z,5.12
2023-02-23T23:33:00.101Z,5.38
2023-02-23T23:35:49.024Z,5.22
2023-02-23T23:38:38.542Z,5.01
2023-02-23T23:41:28.502Z,4.92
2023-02-23T23:44:16.687Z,4.86
2023-02-23T23:47:05.432Z,3.03
2023-02-23T23:49:54.528Z,5.80
2023-02-23T23:52:44.529Z,6.49
2023-02-23T23:55:32.106Z,6.31
2023-02-23T23:58:20.463Z,5.87
